createdAt,value
2023-01-11T00:03:15.902Z,1.70
2023-01-11T00:07:15.618Z,2.12
2023-01-11T00:22:15.618Z,1.10
2023-01-11T00:54:52.916Z,0.77
2023-01-11T00:58:34.976Z,0.68
2023-01-11T01:02:16.844Z,1.48
2023-01-11T01:05:56.272Z,1.65
2023-01-11T01:09:26.598Z,1.48
2023-01-11T01:13:17.707Z,1.20
2023-01-11T01:16:43.249Z,1.77
2023-01-11T01:20:25.165Z,0.90
2023-01-11T01:24:00.175Z,1.58
2023-01-11T01:27:36.155Z,1.98
2023-01-11T01:31:12.816Z,0.65
2023-01-11T01:34:56.751Z,4.10
2023-01-11T01:38:35.747Z,1.23
2023-01-11T01:42:21.785Z,3.78
2023-01-11T01:45:53.122Z,3.78
2023-01-11T01:50:03.026Z,1.15
2023-01-11T01:53:32.074Z,1.35
2023-01-11T01:57:09.770Z,2.47
2023-01-11T02:00:45.472Z,1.55
2023-01-11T02:04:56.748Z,4.75
2023-01-11T02:08:37.985Z,3.55
2023-01-11T02:12:21.751Z,5.60
2023-01-11T02:16:12.581Z,1.00
2023-01-11T02:19:52.498Z,1.55
2023-01-11T02:23:36.303Z,1.73
2023-01-11T02:27:33.525Z,1.25
2023-01-11T02:31:39.553Z,0.98
2023-01-11T02:35:05.148Z,1.37
2023-01-11T02:39:07.767Z,1.45
2023-01-11T02:43:17.185Z,2.08
2023-01-11T02:46:43.546Z,2.70
2023-01-11T02:50:12.455Z,1.20
2023-01-11T02:53:53.221Z,3.47
2023-01-11T02:57:33.090Z,2.72
2023-01-11T03:00:50.922Z,2.17
2023-01-11T03:04:36.506Z,1.90
2023-01-11T03:08:41.466Z,3.65
2023-01-11T03:12:49.101Z,3.58
2023-01-11T03:16:27.907Z,1.62
2023-01-11T03:20:28.271Z,1.15
2023-01-11T03:24:08.450Z,2.67
2023-01-11T03:28:16.900Z,2.05
2023-01-11T03:31:44.839Z,2.37
2023-01-11T03:35:27.529Z,2.30
2023-01-11T03:38:58.045Z,1.15
2023-01-11T03:42:15.380Z,2.85
2023-01-11T03:46:09.648Z,1.70
2023-01-11T03:49:39.959Z,1.90
2023-01-11T03:52:56.335Z,1.08
2023-01-11T03:57:06.642Z,1.83
2023-01-11T04:00:32.409Z,1.98
2023-01-11T04:03:58.509Z,2.70
2023-01-11T04:07:50.059Z,1.73
2023-01-11T04:11:22.038Z,4.97
2023-01-11T04:14:34.242Z,2.30
2023-01-11T04:18:04.908Z,2.47
2023-01-11T04:22:15.977Z,3.35
2023-01-11T04:25:35.054Z,5.25
2023-01-11T04:29:11.841Z,1.85
2023-01-11T04:32:31.062Z,1.58
2023-01-11T04:36:10.161Z,6.57
2023-01-11T04:39:36.259Z,6.07
2023-01-11T04:46:59.798Z,0.80
2023-01-11T04:50:32.958Z,1.50
2023-01-11T04:54:10.246Z,1.27
2023-01-11T04:57:45.787Z,1.48
2023-01-11T05:00:57.165Z,2.10
2023-01-11T05:04:37.556Z,2.28
2023-01-11T05:08:00.395Z,2.17
2023-01-11T05:11:38.080Z,7.30
2023-01-11T05:15:13.783Z,1.83
2023-01-11T05:22:19.152Z,0.73
2023-01-11T05:25:50.012Z,1.50
2023-01-11T05:29:13.456Z,3.87
2023-01-11T05:32:48.949Z,2.97
2023-01-11T05:36:22.368Z,1.90
2023-01-11T05:39:57.417Z,1.50
2023-01-11T05:43:24.760Z,3.10
2023-01-11T05:46:56.811Z,2.08
2023-01-11T05:50:21.392Z,4.35
2023-01-11T05:57:35.608Z,2.30
2023-01-11T06:01:02.067Z,1.87
2023-01-11T06:04:37.150Z,2.85
2023-01-11T06:08:12.013Z,1.92
2023-01-11T06:11:46.435Z,2.85
2023-01-11T06:15:21.417Z,2.53
2023-01-11T06:18:54.419Z,5.35
2023-01-11T06:22:30.069Z,1.52
2023-01-11T06:26:06.666Z,1.30
2023-01-11T06:29:33.554Z,1.55
2023-01-11T06:33:07.688Z,1.90
2023-01-11T06:36:27.211Z,2.42
2023-01-11T06:40:00.289Z,2.42
2023-01-11T06:47:13.663Z,5.32
2023-01-11T06:50:49.060Z,2.75
2023-01-11T06:54:25.890Z,3.58
2023-01-11T06:58:00.759Z,2.42
2023-01-11T07:01:35.163Z,3.03
2023-01-11T07:05:12.161Z,6.00
2023-01-11T07:08:48.166Z,7.35
2023-01-11T07:12:22.998Z,2.10
2023-01-11T07:15:58.834Z,2.80
2023-01-11T07:19:33.172Z,4.05
2023-01-11T07:23:07.968Z,3.25
2023-01-11T07:30:10.384Z,3.22
2023-01-11T07:33:50.002Z,3.58
2023-01-11T07:37:37.444Z,3.20
2023-01-11T07:41:50.302Z,3.15
2023-01-11T07:45:22.066Z,4.75
2023-01-11T07:48:55.113Z,7.03
2023-01-11T07:52:52.871Z,6.75
2023-01-11T07:56:36.894Z,5.95
2023-01-11T08:00:08.737Z,7.45
2023-01-11T08:03:40.716Z,7.43
2023-01-11T08:07:14.669Z,9.63
2023-01-11T08:11:19.053Z,11.73
2023-01-11T08:14:54.223Z,17.40
2023-01-11T08:18:28.831Z,15.93
2023-01-11T08:25:49.707Z,7.62
2023-01-11T08:29:55.344Z,7.85
2023-01-11T08:33:40.189Z,4.50
2023-01-11T08:37:07.496Z,8.60
2023-01-11T08:40:41.994Z,10.80
2023-01-11T08:48:07.220Z,10.35
2023-01-11T08:51:49.348Z,7.25
2023-01-11T08:55:44.616Z,9.15
2023-01-11T08:59:26.960Z,9.52
2023-01-11T09:02:45.799Z,9.27
2023-01-11T09:06:37.267Z,5.85
2023-01-11T09:10:09.654Z,10.60
2023-01-11T09:13:58.539Z,15.55
2023-01-11T09:17:21.043Z,12.48
2023-01-11T09:20:58.774Z,6.20
2023-01-11T09:24:46.334Z,5.27
2023-01-11T09:28:24.230Z,4.50
2023-01-11T09:31:51.614Z,3.75
2023-01-11T09:35:28.507Z,7.55
2023-01-11T09:39:16.194Z,3.62
2023-01-11T09:42:57.535Z,6.78
2023-01-11T09:46:22.374Z,5.90
2023-01-11T09:50:01.054Z,4.82
2023-01-11T09:53:50.349Z,3.53
2023-01-11T09:58:28.823Z,10.13
2023-01-11T10:02:05.867Z,5.03
2023-01-11T10:06:15.143Z,6.15
2023-01-11T10:18:29.448Z,4.95
2023-01-11T10:28:17.897Z,3.90
2023-01-11T10:32:34.718Z,1.92
2023-01-11T10:36:36.989Z,2.03
2023-01-11T10:40:33.675Z,7.17
2023-01-11T10:44:08.816Z,4.95
2023-01-11T10:48:14.782Z,1.62
2023-01-11T10:51:53.274Z,2.35
2023-01-11T10:55:23.395Z,1.58
2023-01-11T10:59:16.211Z,4.12
2023-01-11T11:02:57.147Z,2.00
2023-01-11T11:06:59.435Z,1.55
2023-01-11T11:11:01.897Z,6.25
2023-01-11T11:14:58.663Z,1.85
2023-01-11T11:18:34.807Z,4.10
2023-01-11T11:21:56.511Z,1.10
2023-01-11T11:25:23.172Z,2.05
2023-01-11T11:29:08.735Z,2.20
2023-01-11T11:32:52.370Z,3.67
2023-01-11T11:36:17.822Z,2.83
2023-01-11T11:39:55.006Z,3.72
2023-01-11T11:43:32.659Z,3.60
2023-01-11T11:47:04.746Z,2.37
2023-01-11T11:50:45.447Z,2.90
2023-01-11T11:53:59.013Z,2.00
2023-01-11T11:57:40.625Z,3.47
2023-01-11T12:01:23.968Z,2.83
2023-01-11T12:05:05.731Z,2.22
2023-01-11T12:08:43.098Z,3.30
2023-01-11T12:12:25.909Z,3.03
2023-01-11T12:15:40.673Z,5.70
2023-01-11T12:19:43.286Z,3.85
2023-01-11T12:23:30.089Z,4.62
2023-01-11T12:27:12.618Z,3.15
2023-01-11T12:31:12.929Z,7.40
2023-01-11T12:35:29.271Z,6.78
2023-01-11T12:39:19.593Z,7.18
2023-01-11T12:43:17.693Z,3.53
2023-01-11T12:47:05.942Z,2.10
2023-01-11T12:50:34.799Z,4.32
2023-01-11T12:54:15.023Z,2.65
2023-01-11T12:58:01.200Z,2.53
2023-01-11T13:01:42.961Z,4.70
2023-01-11T13:05:53.748Z,3.53
2023-01-11T13:09:48.571Z,6.80
2023-01-11T13:13:51.056Z,2.33
2023-01-11T13:17:21.411Z,3.30
2023-01-11T13:21:14.541Z,3.33
2023-01-11T13:24:53.726Z,4.45
2023-01-11T13:28:44.203Z,3.53
2023-01-11T13:32:28.525Z,3.67
2023-01-11T13:36:22.700Z,4.32
2023-01-11T13:40:16.896Z,6.62
2023-01-11T13:44:06.475Z,11.02
2023-01-11T13:47:42.449Z,4.20
2023-01-11T13:51:39.117Z,3.65
2023-01-11T13:55:26.598Z,4.57
2023-01-11T13:59:09.248Z,2.62
2023-01-11T14:03:20.183Z,9.90
2023-01-11T14:07:19.342Z,3.87
2023-01-11T14:11:39.184Z,3.17
2023-01-11T14:15:44.021Z,4.43
2023-01-11T14:19:44.705Z,3.03
2023-01-11T14:23:33.441Z,5.18
2023-01-11T14:27:47.205Z,4.22
2023-01-11T14:31:56.417Z,5.32
2023-01-11T14:36:06.216Z,4.03
2023-01-11T14:44:54.086Z,5.55
2023-01-11T15:01:00.415Z,5.03
2023-01-11T15:05:00.021Z,6.78
2023-01-11T15:09:08.529Z,6.18
2023-01-11T15:12:41.713Z,7.20
2023-01-11T15:16:36.881Z,6.20
2023-01-11T15:20:14.009Z,3.65
2023-01-11T15:23:54.452Z,5.85
2023-01-11T15:35:57.821Z,4.60
2023-01-11T15:48:51.183Z,5.62
2023-01-11T16:01:18.571Z,6.55
2023-01-11T16:05:13.074Z,5.37
2023-01-11T16:08:56.839Z,7.70
2023-01-11T16:13:01.049Z,9.20
2023-01-11T16:16:56.108Z,8.15
2023-01-11T16:20:30.040Z,5.40
2023-01-11T16:23:47.897Z,5.12
2023-01-11T16:27:35.136Z,5.78
2023-01-11T16:31:05.531Z,4.37
2023-01-11T16:34:26.183Z,8.38
2023-01-11T16:37:50.765Z,5.80
2023-01-11T16:41:23.984Z,8.70
2023-01-11T16:45:07.515Z,5.72
2023-01-11T16:48:41.861Z,6.62
2023-01-11T16:52:27.558Z,11.38
2023-01-11T16:56:09.227Z,7.30
2023-01-11T17:03:47.894Z,6.75
2023-01-11T17:07:24.959Z,11.10
2023-01-11T17:10:58.933Z,14.43
2023-01-11T17:14:36.390Z,13.02
2023-01-11T17:18:04.834Z,17.02
2023-01-11T17:21:39.217Z,12.95
2023-01-11T17:29:00.591Z,16.52
2023-01-11T17:32:38.539Z,15.63
2023-01-11T17:36:07.665Z,11.85
2023-01-11T17:39:50.976Z,13.38
2023-01-11T17:43:48.787Z,17.75
2023-01-11T17:47:23.725Z,13.27
2023-01-11T17:51:09.981Z,21.92
2023-01-11T17:54:59.201Z,14.27
2023-01-11T17:58:39.241Z,21.33
2023-01-11T18:02:16.309Z,30.35
2023-01-11T18:05:56.084Z,13.52
2023-01-11T18:09:36.180Z,22.23
2023-01-11T18:13:23.666Z,14.50
2023-01-11T18:17:42.377Z,21.00
2023-01-11T18:21:26.713Z,24.25
2023-01-11T18:25:14.987Z,19.35
2023-01-11T18:29:04.072Z,18.52
2023-01-11T18:32:45.047Z,22.27
2023-01-11T18:36:23.008Z,23.42
2023-01-11T18:39:58.471Z,21.30
2023-01-11T18:43:36.307Z,20.40
2023-01-11T18:47:11.322Z,21.48
2023-01-11T18:50:52.481Z,21.02
2023-01-11T18:54:33.472Z,21.65
2023-01-11T18:58:06.123Z,31.92
2023-01-11T19:01:52.666Z,31.92
2023-01-11T19:05:19.006Z,25.77
2023-01-11T19:08:50.271Z,23.65
2023-01-11T19:12:20.919Z,21.27
2023-01-11T19:15:56.972Z,19.02
2023-01-11T19:19:33.788Z,34.10
2023-01-11T19:23:02.937Z,23.55
2023-01-11T19:27:08.601Z,30.40
2023-01-11T19:30:41.014Z,18.98
2023-01-11T19:34:13.235Z,24.08
2023-01-11T19:37:42.783Z,36.17
2023-01-11T19:41:51.297Z,32.67
2023-01-11T19:45:15.139Z,28.05
2023-01-11T19:48:47.311Z,28.45
2023-01-11T19:52:29.287Z,24.70
2023-01-11T19:56:08.476Z,24.45
2023-01-11T20:00:14.517Z,24.55
2023-01-11T20:03:40.714Z,43.40
2023-01-11T20:07:06.261Z,26.65
2023-01-11T20:10:51.178Z,36.40
2023-01-11T20:14:19.637Z,29.63
2023-01-11T20:18:23.331Z,33.08
2023-01-11T20:26:42.418Z,33.30
2023-01-11T20:30:15.411Z,37.10
2023-01-11T20:33:56.418Z,34.67
2023-01-11T20:37:38.668Z,25.58
2023-01-11T20:41:39.345Z,21.90
2023-01-11T20:45:12.582Z,36.78
2023-01-11T20:48:31.207Z,30.20
2023-01-11T20:51:51.990Z,23.85
2023-01-11T20:55:21.325Z,32.38
2023-01-11T20:58:55.530Z,24.60
2023-01-11T21:02:19.162Z,29.67
2023-01-11T21:05:56.440Z,24.40
2023-01-11T21:09:29.214Z,22.37
2023-01-11T21:16:32.843Z,32.35
2023-01-11T21:20:05.060Z,25.65
2023-01-11T21:23:31.794Z,25.23
2023-01-11T21:27:13.884Z,34.25
2023-01-11T21:30:48.328Z,44.33
2023-01-11T21:34:17.947Z,35.97
2023-01-11T21:37:44.378Z,27.45
2023-01-11T21:41:18.833Z,34.25
2023-01-11T21:44:52.669Z,33.42
2023-01-11T21:48:27.305Z,26.08
2023-01-11T21:52:01.793Z,30.73
2023-01-11T21:55:34.860Z,22.45
2023-01-11T21:59:06.258Z,32.08
2023-01-11T22:02:25.549Z,33.03
2023-01-11T22:06:01.707Z,37.03
2023-01-11T22:09:18.290Z,24.75
2023-01-11T22:12:49.632Z,52.03
2023-01-11T22:16:46.199Z,47.25
2023-01-11T22:20:03.321Z,40.00
2023-01-11T22:23:30.956Z,37.25
2023-01-11T22:26:59.146Z,50.72
2023-01-11T22:30:25.721Z,41.20
2023-01-11T22:33:43.271Z,41.92
2023-01-11T22:37:11.105Z,35.53
2023-01-11T22:40:45.223Z,37.85
2023-01-11T22:44:19.779Z,29.83
2023-01-11T22:47:59.458Z,42.88
2023-01-11T22:51:51.264Z,33.50
2023-01-11T22:55:25.180Z,44.20
2023-01-11T22:58:59.421Z,21.27
2023-01-11T23:02:34.105Z,38.20
2023-01-11T23:06:09.997Z,29.40
2023-01-11T23:09:48.549Z,33.13
2023-01-11T23:13:34.031Z,42.62
2023-01-11T23:16:53.701Z,30.98
2023-01-11T23:20:13.083Z,22.55
2023-01-11T23:23:34.816Z,40.67
2023-01-11T23:26:59.658Z,23.92
2023-01-11T23:33:59.834Z,23.85
2023-01-11T23:37:30.159Z,26.20
2023-01-11T23:41:26.644Z,35.30
2023-01-11T23:44:43.379Z,26.65
2023-01-11T23:48:02.709Z,26.30
2023-01-11T23:51:38.270Z,24.40
2023-01-11T23:55:15.100Z,20.80
2023-01-11T23:58:51.068Z,20.85
